createdAt,value
2019-03-05T00:00:01.783Z,1003.8
2019-03-05T00:01:01.769Z,1003.8
2019-03-05T00:02:01.806Z,1003.8
2019-03-05T00:03:01.784Z,1003.8
2019-03-05T00:04:01.808Z,1003.8
2019-03-05T00:05:01.838Z,1003.9
2019-03-05T00:06:01.837Z,1003.9
2019-03-05T00:07:01.840Z,1003.9
2019-03-05T00:08:01.851Z,1003.8
2019-03-05T00:09:01.912Z,1004.1
2019-03-05T00:10:01.873Z,1004.1
2019-03-05T00:11:01.880Z,1004.1
2019-03-05T00:12:01.915Z,1004.1
2019-03-05T00:13:01.907Z,1004.3
2019-03-05T00:14:01.910Z,1004
2019-03-05T00:15:01.957Z,1004.2
2019-03-05T00:16:01.960Z,1004.2
2019-03-05T00:17:04.442Z,1004.1
2019-03-05T00:18:01.930Z,1004.2
2019-03-05T00:19:01.939Z,1004.2
2019-03-05T00:20:02.106Z,1004.3
2019-03-05T00:21:01.969Z,1004.3
2019-03-05T00:22:01.956Z,1004.4
2019-03-05T00:23:01.963Z,1004.2
2019-03-05T00:24:02.019Z,1004.3
2019-03-05T00:25:01.973Z,1004.2
2019-03-05T00:26:01.996Z,1004.3
2019-03-05T00:27:02.048Z,1004.2
2019-03-05T00:28:02.022Z,1004.2
2019-03-05T00:29:01.993Z,1004.2
2019-03-05T00:30:02.006Z,1004.2
2019-03-05T00:31:02.036Z,1004.1
2019-03-05T00:32:02.039Z,1004.2
2019-03-05T00:33:02.086Z,1004.2
2019-03-05T00:34:02.121Z,1004.4
2019-03-05T00:35:02.216Z,1004.2
2019-03-05T00:36:02.210Z,1004.2
2019-03-05T00:37:02.240Z,1004.2
2019-03-05T00:38:02.299Z,1004.1
2019-03-05T00:39:02.844Z,1004.2
2019-03-05T00:40:17.664Z,1004.2
2019-03-05T00:41:02.406Z,1004.2
2019-03-05T00:42:02.460Z,1004.1
2019-03-05T00:43:02.679Z,1004.1
2019-03-05T00:44:02.589Z,1004.3
2019-03-05T00:45:02.574Z,1004.2
2019-03-05T00:46:02.602Z,1004.3
2019-03-05T00:47:02.644Z,1004.2
2019-03-05T00:48:02.718Z,1004.1
2019-03-05T00:49:02.726Z,1004.2
2019-03-05T00:50:02.752Z,1004.2
2019-03-05T00:51:02.804Z,1004.2
2019-03-05T00:52:02.822Z,1004.3
2019-03-05T00:53:02.871Z,1004.2
2019-03-05T00:54:02.854Z,1004.3
2019-03-05T00:55:02.893Z,1004.4
2019-03-05T00:56:02.931Z,1004.3
2019-03-05T00:57:03.031Z,1004.3
2019-03-05T00:58:02.986Z,1004.3
2019-03-05T00:59:03.022Z,1004.4
2019-03-05T01:00:03.053Z,1004.4
2019-03-05T01:01:03.093Z,1004.4
2019-03-05T01:02:03.111Z,1004.6
2019-03-05T01:03:03.146Z,1004.4
2019-03-05T01:04:03.142Z,1004.4
2019-03-05T01:05:03.151Z,1004.4
2019-03-05T01:06:03.218Z,1004.4
2019-03-05T01:07:05.226Z,1004.5
2019-03-05T01:08:03.269Z,1004.5
2019-03-05T01:09:03.254Z,1004.5
2019-03-05T01:10:03.285Z,1004.6
2019-03-05T01:11:03.301Z,1004.6
2019-03-05T01:12:03.332Z,1004.6
2019-03-05T01:13:03.692Z,1004.7
2019-03-05T01:14:03.475Z,1004.7
2019-03-05T01:15:03.391Z,1004.6
2019-03-05T01:16:03.404Z,1004.5
2019-03-05T01:17:06.074Z,1004.6
2019-03-05T01:18:03.443Z,1004.6
2019-03-05T01:19:03.444Z,1004.6
2019-03-05T01:20:03.510Z,1004.6
2019-03-05T01:21:03.508Z,1004.6
2019-03-05T01:22:03.546Z,1004.5
2019-03-05T01:23:03.577Z,1004.5
2019-03-05T01:24:03.735Z,1004.4
2019-03-05T01:25:03.623Z,1004.4
2019-03-05T01:26:03.591Z,1004.6
2019-03-05T01:27:03.656Z,1004.4
2019-03-05T01:28:03.663Z,1004.5
2019-03-05T01:29:03.612Z,1004.5
2019-03-05T01:30:03.624Z,1004.5
2019-03-05T01:31:03.625Z,1004.4
2019-03-05T01:32:03.670Z,1004.4
2019-03-05T01:33:03.692Z,1004.5
2019-03-05T01:34:03.675Z,1004.5
2019-03-05T01:35:03.695Z,1004.5
2019-03-05T01:36:03.701Z,1004.3
2019-03-05T01:37:03.788Z,1004.3
2019-03-05T01:38:03.730Z,1004.4
2019-03-05T01:39:03.763Z,1004.4
2019-03-05T01:40:03.808Z,1004.3
2019-03-05T01:41:03.745Z,1004.4
2019-03-05T01:42:03.783Z,1004.3
2019-03-05T01:43:03.773Z,1004.3
2019-03-05T01:44:03.760Z,1004.3
2019-03-05T01:45:03.774Z,1004.3
2019-03-05T01:46:03.784Z,1004.4
2019-03-05T01:47:03.766Z,1004.4
2019-03-05T01:48:03.826Z,1004.4
2019-03-05T01:49:03.779Z,1004.4
2019-03-05T01:50:03.784Z,1004.5
2019-03-05T01:51:04.320Z,1004.4
2019-03-05T01:52:03.818Z,1004.4
2019-03-05T01:53:03.794Z,1004.4
2019-03-05T01:54:03.888Z,1004.5
2019-03-05T01:55:03.902Z,1004.5
2019-03-05T01:56:03.999Z,1004.5
2019-03-05T01:57:03.932Z,1004.4
2019-03-05T01:58:03.991Z,1004.6
2019-03-05T01:59:04.011Z,1004.6
2019-03-05T02:00:04.083Z,1004.5
2019-03-05T02:01:04.101Z,1004.5
2019-03-05T02:02:04.141Z,1004.5
2019-03-05T02:03:04.232Z,1004.5
2019-03-05T02:04:04.293Z,1004.5
2019-03-05T02:05:04.275Z,1004.4
2019-03-05T02:06:04.313Z,1004.4
2019-03-05T02:07:04.331Z,1004.3
2019-03-05T02:08:04.345Z,1004.4
2019-03-05T02:09:04.469Z,1004.4
2019-03-05T02:10:04.436Z,1004.5
2019-03-05T02:11:04.488Z,1004.4
2019-03-05T02:12:04.520Z,1004.6
2019-03-05T02:13:04.558Z,1004.5
2019-03-05T02:14:04.584Z,1004.4
2019-03-05T02:15:04.623Z,1004.5
2019-03-05T02:16:04.676Z,1004.4
2019-03-05T02:17:04.707Z,1004.5
2019-03-05T02:18:04.721Z,1004.4
2019-03-05T02:19:04.778Z,1004.5
2019-03-05T02:20:04.777Z,1004.4
2019-03-05T02:21:04.817Z,1004.4
2019-03-05T02:22:04.833Z,1004.3
2019-03-05T02:23:04.900Z,1004.5
2019-03-05T02:24:04.926Z,1004.3
2019-03-05T02:25:05.009Z,1004.4
2019-03-05T02:26:04.970Z,1004.4
2019-03-05T02:27:04.977Z,1004.5
2019-03-05T02:28:05.017Z,1004.4
2019-03-05T02:29:05.194Z,1004.5
2019-03-05T02:30:05.310Z,1004.4
2019-03-05T02:31:05.156Z,1004.3
2019-03-05T02:32:05.165Z,1004.5
2019-03-05T02:33:05.181Z,1004.4
2019-03-05T02:34:05.189Z,1004.3
2019-03-05T02:35:05.252Z,1004.4
2019-03-05T02:36:05.262Z,1004.4
2019-03-05T02:37:05.291Z,1004.4
2019-03-05T02:38:05.996Z,1004.4
2019-03-05T02:39:05.338Z,1004.3
2019-03-05T02:40:05.388Z,1004.4
2019-03-05T02:41:05.387Z,1004.4
2019-03-05T02:42:05.431Z,1004.4
2019-03-05T02:43:05.456Z,1004.4
2019-03-05T02:44:05.467Z,1004.5
2019-03-05T02:45:05.513Z,1004.4
2019-03-05T02:46:05.498Z,1004.4
2019-03-05T02:47:05.541Z,1004.6
2019-03-05T02:48:05.563Z,1004.3
2019-03-05T02:49:05.586Z,1004.4
2019-03-05T02:50:05.631Z,1004.2
2019-03-05T02:51:05.615Z,1004.5
2019-03-05T02:52:05.627Z,1004.5
2019-03-05T02:53:05.637Z,1004.4
2019-03-05T02:54:05.646Z,1004.5
2019-03-05T02:55:05.655Z,1004.3
2019-03-05T02:56:05.750Z,1004.4
2019-03-05T02:57:05.731Z,1004.5
2019-03-05T02:58:05.730Z,1004.5
2019-03-05T02:59:05.746Z,1004.4
2019-03-05T03:00:05.794Z,1004.6
2019-03-05T03:01:05.800Z,1004.5
2019-03-05T03:02:05.955Z,1004.5
2019-03-05T03:03:05.813Z,1004.5
2019-03-05T03:04:05.849Z,1004.4
2019-03-05T03:05:05.834Z,1004.4
2019-03-05T03:06:05.851Z,1004.4
2019-03-05T03:07:05.868Z,1004.5
2019-03-05T03:08:05.847Z,1004.5
2019-03-05T03:09:05.887Z,1004.6
2019-03-05T03:10:05.873Z,1004.6
2019-03-05T03:11:05.913Z,1004.5
2019-03-05T03:12:05.912Z,1004.5
2019-03-05T03:13:05.956Z,1004.5
2019-03-05T03:14:05.933Z,1004.4
2019-03-05T03:15:05.961Z,1004.5
2019-03-05T03:16:08.429Z,1004.5
2019-03-05T03:17:05.962Z,1004.6
2019-03-05T03:18:05.979Z,1004.5
2019-03-05T03:19:05.995Z,1004.5
2019-03-05T03:20:05.988Z,1004.5
2019-03-05T03:21:06.055Z,1004.5
2019-03-05T03:22:06.028Z,1004.5
2019-03-05T03:23:06.051Z,1004.5
2019-03-05T03:24:06.045Z,1004.6
2019-03-05T03:25:06.032Z,1004.5
2019-03-05T03:26:06.097Z,1004.7
2019-03-05T03:27:06.151Z,1004.6
2019-03-05T03:28:06.082Z,1004.7
2019-03-05T03:29:06.078Z,1004.6
2019-03-05T03:30:06.067Z,1004.7
2019-03-05T03:31:06.233Z,1004.7
2019-03-05T03:32:06.198Z,1004.6
2019-03-05T03:33:06.129Z,1004.6
2019-03-05T03:34:06.144Z,1004.6
2019-03-05T03:35:06.113Z,1004.6
2019-03-05T03:36:06.081Z,1004.7
2019-03-05T03:37:06.088Z,1004.6
2019-03-05T03:38:06.131Z,1004.6
2019-03-05T03:39:06.279Z,1004.7
2019-03-05T03:40:06.307Z,1004.6
2019-03-05T03:41:06.180Z,1004.6
2019-03-05T03:42:06.136Z,1004.6
2019-03-05T03:43:06.121Z,1004.6
2019-03-05T03:44:06.224Z,1004.7
2019-03-05T03:45:06.156Z,1004.5
2019-03-05T03:46:06.146Z,1004.6
2019-03-05T03:47:06.130Z,1004.7
2019-03-05T03:48:06.157Z,1004.6
2019-03-05T03:49:06.199Z,1004.7
2019-03-05T03:50:06.165Z,1004.7
2019-03-05T03:51:06.149Z,1004.6
2019-03-05T03:52:06.164Z,1004.7
2019-03-05T03:53:06.185Z,1004.7
2019-03-05T03:54:06.275Z,1004.6
2019-03-05T03:55:06.290Z,1004.7
2019-03-05T03:56:06.294Z,1004.8
2019-03-05T03:57:06.339Z,1004.8
2019-03-05T03:58:06.360Z,1004.9
2019-03-05T03:59:06.399Z,1004.8
2019-03-05T04:00:06.422Z,1004.8
2019-03-05T04:01:07.120Z,1004.9
2019-03-05T04:02:06.503Z,1004.7
2019-03-05T04:03:06.534Z,1004.9
2019-03-05T04:04:06.546Z,1004.7
2019-03-05T04:05:06.573Z,1004.8
2019-03-05T04:06:06.611Z,1004.7
2019-03-05T04:07:06.667Z,1004.8
2019-03-05T04:08:06.680Z,1004.8
2019-03-05T04:09:06.726Z,1004.8
2019-03-05T04:10:06.751Z,1004.8
2019-03-05T04:11:06.756Z,1005
2019-03-05T04:12:06.804Z,1004.8
2019-03-05T04:13:06.834Z,1004.7
2019-03-05T04:14:06.805Z,1004.9
2019-03-05T04:15:06.828Z,1004.8
2019-03-05T04:16:06.893Z,1004.9
2019-03-05T04:17:06.868Z,1004.9
2019-03-05T04:18:06.932Z,1004.9
2019-03-05T04:19:06.907Z,1005.1
2019-03-05T04:20:06.943Z,1004.8
2019-03-05T04:21:06.926Z,1004.8
2019-03-05T04:22:06.988Z,1004.9
2019-03-05T04:23:06.977Z,1004.9
2019-03-05T04:24:07.035Z,1004.9
2019-03-05T04:25:07.058Z,1005.1
2019-03-05T04:26:07.032Z,1004.9
2019-03-05T04:27:07.048Z,1004.9
2019-03-05T04:28:07.061Z,1005.1
2019-03-05T04:29:07.075Z,1005.1
2019-03-05T04:30:07.111Z,1004.8
2019-03-05T04:31:07.670Z,1004.9
2019-03-05T04:32:07.097Z,1004.9
2019-03-05T04:33:07.123Z,1005
2019-03-05T04:34:07.139Z,1004.9
2019-03-05T04:35:07.135Z,1004.9
2019-03-05T04:36:07.146Z,1004.9
2019-03-05T04:37:07.208Z,1005.1
2019-03-05T04:38:07.158Z,1005
2019-03-05T04:39:07.191Z,1004.9
2019-03-05T04:40:07.202Z,1005
2019-03-05T04:41:07.186Z,1005
2019-03-05T04:42:07.251Z,1005.1
2019-03-05T04:43:07.246Z,1005
2019-03-05T04:44:07.253Z,1004.9
2019-03-05T04:45:07.414Z,1004.9
2019-03-05T04:46:07.246Z,1005
2019-03-05T04:47:07.261Z,1005
2019-03-05T04:48:07.245Z,1005.1
2019-03-05T04:49:07.224Z,1005
2019-03-05T04:50:07.255Z,1005.1
2019-03-05T04:51:07.241Z,1005
2019-03-05T04:52:07.261Z,1005.2
2019-03-05T04:53:07.245Z,1005.2
2019-03-05T04:54:07.304Z,1005.1
2019-03-05T04:55:07.322Z,1005
2019-03-05T04:56:07.272Z,1005.1
2019-03-05T04:57:07.300Z,1005.1
2019-03-05T04:58:07.312Z,1005.1
2019-03-05T04:59:07.358Z,1005.1
2019-03-05T05:00:07.339Z,1005.1
2019-03-05T05:01:09.617Z,1005.1
2019-03-05T05:02:07.416Z,1005.2
2019-03-05T05:03:07.427Z,1005.2
2019-03-05T05:04:07.470Z,1005.2
2019-03-05T05:05:07.601Z,1005.3
2019-03-05T05:06:07.568Z,1005.2
2019-03-05T05:07:07.630Z,1005.3
2019-03-05T05:08:07.675Z,1005.3
2019-03-05T05:09:10.138Z,1005.1
2019-03-05T05:10:07.787Z,1005.3
2019-03-05T05:11:07.838Z,1005.2
2019-03-05T05:12:07.769Z,1005.2
2019-03-05T05:13:07.880Z,1005.2
2019-03-05T05:14:07.904Z,1005.2
2019-03-05T05:15:07.909Z,1005.2
2019-03-05T05:16:07.970Z,1005.2
2019-03-05T05:17:07.984Z,1005.2
2019-03-05T05:18:07.978Z,1005.1
2019-03-05T05:19:08.011Z,1005.3
2019-03-05T05:20:08.041Z,1005.2
2019-03-05T05:21:08.067Z,1005.2
2019-03-05T05:22:08.125Z,1005.1
2019-03-05T05:23:08.104Z,1005.2
2019-03-05T05:24:08.180Z,1005.2
2019-03-05T05:25:08.192Z,1005.2
2019-03-05T05:26:08.178Z,1005.1
2019-03-05T05:27:08.240Z,1005.2
2019-03-05T05:28:08.241Z,1005.1
2019-03-05T05:29:08.256Z,1005.2
2019-03-05T05:30:08.341Z,1005.1
2019-03-05T05:31:08.367Z,1005.1
2019-03-05T05:32:08.340Z,1005.1
2019-03-05T05:33:08.430Z,1005.3
2019-03-05T05:34:08.428Z,1005.3
2019-03-05T05:35:08.426Z,1005.2
2019-03-05T05:36:08.472Z,1005.2
2019-03-05T05:37:08.441Z,1005.3
2019-03-05T05:38:08.515Z,1005.3
2019-03-05T05:39:08.544Z,1005.2
2019-03-05T05:40:08.514Z,1005.2
2019-03-05T05:41:08.569Z,1005.2
2019-03-05T05:42:08.575Z,1005.2
2019-03-05T05:43:08.620Z,1005.3
2019-03-05T05:44:08.634Z,1005.4
2019-03-05T05:45:08.638Z,1005.3
2019-03-05T05:46:08.672Z,1005.3
2019-03-05T05:47:08.696Z,1005.3
2019-03-05T05:48:08.713Z,1005.3
2019-03-05T05:49:08.698Z,1005.2
2019-03-05T05:50:08.715Z,1005.3
2019-03-05T05:51:08.755Z,1005.4
2019-03-05T05:52:08.792Z,1005.3
2019-03-05T05:53:08.793Z,1005.4
2019-03-05T05:54:08.778Z,1005.3
2019-03-05T05:55:08.795Z,1005.3
2019-03-05T05:56:08.845Z,1005.3
2019-03-05T05:57:08.838Z,1005.3
2019-03-05T05:58:08.837Z,1005.3
2019-03-05T05:59:08.890Z,1005.4
2019-03-05T06:00:08.854Z,1005.5
2019-03-05T06:01:08.860Z,1005.5
2019-03-05T06:02:08.873Z,1005.6
2019-03-05T06:03:08.914Z,1005.6
2019-03-05T06:04:08.926Z,1005.5
2019-03-05T06:05:08.911Z,1005.5
2019-03-05T06:06:08.939Z,1005.5
2019-03-05T06:07:08.946Z,1005.6
2019-03-05T06:08:08.946Z,1005.6
2019-03-05T06:09:08.956Z,1005.5
2019-03-05T06:10:09.059Z,1005.5
2019-03-05T06:11:09.015Z,1005.6
2019-03-05T06:12:08.943Z,1005.7
2019-03-05T06:13:08.961Z,1005.5
2019-03-05T06:14:08.969Z,1005.6
2019-03-05T06:15:08.973Z,1005.6
2019-03-05T06:16:08.992Z,1005.7
2019-03-05T06:17:08.964Z,1005.7
2019-03-05T06:18:08.970Z,1005.6
2019-03-05T06:19:08.981Z,1005.7
2019-03-05T06:20:08.994Z,1005.5
2019-03-05T06:21:09.043Z,1005.7
2019-03-05T06:22:09.121Z,1005.6
2019-03-05T06:23:09.283Z,1005.5
2019-03-05T06:24:10.208Z,1005.5
2019-03-05T06:25:09.209Z,1005.6
2019-03-05T06:26:09.211Z,1005.5
2019-03-05T06:27:09.290Z,1005.6
2019-03-05T06:28:09.305Z,1005.5
2019-03-05T06:29:09.388Z,1005.6
2019-03-05T06:30:09.379Z,1005.5
2019-03-05T06:31:09.420Z,1005.6
2019-03-05T06:32:09.425Z,1005.7
2019-03-05T06:33:09.556Z,1005.6
2019-03-05T06:34:09.514Z,1005.8
2019-03-05T06:35:09.525Z,1005.7
2019-03-05T06:36:09.569Z,1006
2019-03-05T06:37:09.609Z,1005.8
2019-03-05T06:38:09.665Z,1005.8
2019-03-05T06:39:09.663Z,1006
2019-03-05T06:40:09.693Z,1006.1
2019-03-05T06:41:09.737Z,1005.9
2019-03-05T06:42:09.793Z,1005.8
2019-03-05T06:43:09.786Z,1005.9
2019-03-05T06:44:09.864Z,1005.9
2019-03-05T06:45:09.823Z,1005.9
2019-03-05T06:46:09.899Z,1006
2019-03-05T06:47:09.907Z,1005.9
2019-03-05T06:48:09.918Z,1006
2019-03-05T06:49:10.434Z,1006
2019-03-05T06:50:10.033Z,1006
2019-03-05T06:51:10.004Z,1006
2019-03-05T06:52:11.784Z,1006
2019-03-05T06:53:10.088Z,1006.1
2019-03-05T06:54:10.117Z,1006.1
2019-03-05T06:55:10.125Z,1005.9
2019-03-05T06:56:10.191Z,1006
2019-03-05T06:57:10.191Z,1005.8
2019-03-05T06:58:11.782Z,1005.9
2019-03-05T06:59:10.220Z,1006.1
2019-03-05T07:00:10.226Z,1005.8
2019-03-05T07:01:10.285Z,1005.9
2019-03-05T07:02:10.294Z,1005.9
2019-03-05T07:03:10.306Z,1005.9
2019-03-05T07:04:12.559Z,1006
2019-03-05T07:05:10.458Z,1005.9
2019-03-05T07:06:10.412Z,1006.1
2019-03-05T07:07:10.396Z,1006
2019-03-05T07:08:12.902Z,1006.1
2019-03-05T07:09:10.430Z,1006
2019-03-05T07:10:10.461Z,1006
2019-03-05T07:11:10.499Z,1006.2
2019-03-05T07:12:10.540Z,1006.3
2019-03-05T07:13:10.574Z,1006.2
2019-03-05T07:14:10.537Z,1006.4
2019-03-05T07:15:10.607Z,1006.4
2019-03-05T07:16:10.570Z,1006.5
2019-03-05T07:17:10.705Z,1006.4
2019-03-05T07:18:11.169Z,1006.3
2019-03-05T07:19:10.619Z,1006.2
2019-03-05T07:20:10.735Z,1006.4
2019-03-05T07:21:10.657Z,1006.3
2019-03-05T07:22:10.683Z,1006.3
2019-03-05T07:23:10.685Z,1006.2
2019-03-05T07:24:10.666Z,1006.3
2019-03-05T07:25:10.703Z,1006.2
2019-03-05T07:26:10.749Z,1006.4
2019-03-05T07:27:10.718Z,1006.3
2019-03-05T07:28:10.716Z,1006.4
2019-03-05T07:29:10.767Z,1006.4
2019-03-05T07:30:10.777Z,1006.4
2019-03-05T07:31:10.825Z,1006.4
2019-03-05T07:32:10.824Z,1006.3
2019-03-05T07:33:10.786Z,1006.3
2019-03-05T07:34:10.876Z,1006.3
2019-03-05T07:35:10.879Z,1006.4
2019-03-05T07:36:10.930Z,1006.5
2019-03-05T07:37:10.852Z,1006.4
2019-03-05T07:38:10.865Z,1006.4
2019-03-05T07:39:10.885Z,1006.4
2019-03-05T07:40:10.882Z,1006.4
2019-03-05T07:41:10.949Z,1006.3
2019-03-05T07:42:10.893Z,1006.4
2019-03-05T07:43:10.933Z,1006.4
2019-03-05T07:44:10.889Z,1006.3
2019-03-05T07:45:10.916Z,1006.4
2019-03-05T07:46:10.927Z,1006.4
2019-03-05T07:47:10.944Z,1006.4
2019-03-05T07:48:13.150Z,1006.4
2019-03-05T07:49:10.934Z,1006.3
2019-03-05T07:50:10.946Z,1006.2
2019-03-05T07:51:10.958Z,1006.3
2019-03-05T07:52:10.962Z,1006.2
2019-03-05T07:53:10.952Z,1006.3
2019-03-05T07:54:10.966Z,1006.3
2019-03-05T07:55:13.760Z,1006.1
2019-03-05T07:56:11.003Z,1006.3
2019-03-05T07:57:10.990Z,1006.4
2019-03-05T07:58:10.940Z,1006.3
2019-03-05T07:59:11.016Z,1006.3
2019-03-05T08:00:10.973Z,1006.4
2019-03-05T08:01:21.479Z,1006.3
2019-03-05T08:02:10.989Z,1006.2
2019-03-05T08:03:10.981Z,1006.3
2019-03-05T08:04:11.010Z,1006.5
2019-03-05T08:05:10.994Z,1006.4
2019-03-05T08:06:11.012Z,1006.4
2019-03-05T08:07:11.199Z,1006.4
2019-03-05T08:08:11.078Z,1006.4
2019-03-05T08:09:11.008Z,1006.5
2019-03-05T08:10:11.002Z,1006.5
2019-03-05T08:11:11.034Z,1006.5
2019-03-05T08:12:11.031Z,1006.5
2019-03-05T08:13:11.114Z,1006.5
2019-03-05T08:14:11.093Z,1006.6
2019-03-05T08:15:11.125Z,1006.5
2019-03-05T08:16:11.168Z,1006.6
2019-03-05T08:17:11.225Z,1006.8
2019-03-05T08:18:13.728Z,1006.5
2019-03-05T08:19:11.307Z,1006.7
2019-03-05T08:20:11.301Z,1006.7
2019-03-05T08:21:11.348Z,1006.6
2019-03-05T08:22:11.395Z,1006.5
2019-03-05T08:23:11.406Z,1006.5
2019-03-05T08:24:11.470Z,1006.5
2019-03-05T08:25:11.453Z,1006.7
2019-03-05T08:26:11.491Z,1006.8
2019-03-05T08:27:11.522Z,1006.8
2019-03-05T08:28:11.577Z,1006.8
2019-03-05T08:29:11.554Z,1006.8
2019-03-05T08:30:14.416Z,1006.7
2019-03-05T08:31:11.696Z,1006.7
2019-03-05T08:32:11.646Z,1006.8
2019-03-05T08:33:11.770Z,1006.8
2019-03-05T08:34:11.735Z,1006.7
2019-03-05T08:35:11.760Z,1006.8
2019-03-05T08:36:11.744Z,1006.8
2019-03-05T08:37:13.414Z,1006.7
2019-03-05T08:38:11.838Z,1006.9
2019-03-05T08:39:11.839Z,1006.8
2019-03-05T08:40:11.862Z,1006.7
2019-03-05T08:41:11.911Z,1006.6
2019-03-05T08:42:11.875Z,1006.7
2019-03-05T08:43:11.909Z,1006.8
2019-03-05T08:44:11.918Z,1006.7
2019-03-05T08:45:11.923Z,1006.8
2019-03-05T08:46:11.951Z,1006.7
2019-03-05T08:47:11.923Z,1006.9
2019-03-05T08:48:11.984Z,1006.7
2019-03-05T08:49:11.964Z,1006.7
2019-03-05T08:50:11.986Z,1006.9
2019-03-05T08:51:12.021Z,1006.8
2019-03-05T08:52:12.012Z,1006.7
2019-03-05T08:53:12.032Z,1006.7
2019-03-05T08:54:12.082Z,1006.9
2019-03-05T08:55:12.059Z,1006.8
2019-03-05T08:56:12.109Z,1006.8
2019-03-05T08:57:12.076Z,1006.7
2019-03-05T08:58:12.146Z,1006.8
2019-03-05T08:59:12.158Z,1006.9
2019-03-05T09:00:12.133Z,1006.9
2019-03-05T09:01:12.153Z,1007
2019-03-05T09:02:12.134Z,1006.8
2019-03-05T09:03:12.142Z,1006.8
2019-03-05T09:04:12.129Z,1006.8
2019-03-05T09:05:12.164Z,1006.8
2019-03-05T09:06:12.189Z,1007
2019-03-05T09:07:12.151Z,1007
2019-03-05T09:08:12.175Z,1007
2019-03-05T09:09:12.187Z,1007.1
2019-03-05T09:10:12.214Z,1007
2019-03-05T09:11:12.154Z,1007
2019-03-05T09:12:12.317Z,1006.9
2019-03-05T09:13:12.214Z,1007
2019-03-05T09:14:12.272Z,1006.9
2019-03-05T09:15:12.209Z,1007
2019-03-05T09:16:12.228Z,1007
2019-03-05T09:17:12.205Z,1007.2
2019-03-05T09:18:12.214Z,1007
2019-03-05T09:19:12.261Z,1007.2
2019-03-05T09:20:12.304Z,1007.2
2019-03-05T09:21:12.333Z,1007.1
2019-03-05T09:22:12.437Z,1007
2019-03-05T09:23:12.406Z,1007
2019-03-05T09:24:12.425Z,1007.2
2019-03-05T09:25:13.506Z,1007
2019-03-05T09:26:13.483Z,1007.3
2019-03-05T09:27:12.483Z,1007
2019-03-05T09:28:12.572Z,1007.4
2019-03-05T09:29:12.625Z,1007.2
2019-03-05T09:30:12.664Z,1007.2
2019-03-05T09:31:12.749Z,1007.4
2019-03-05T09:32:12.718Z,1007.3
2019-03-05T09:33:12.733Z,1007.3
2019-03-05T09:34:12.749Z,1007.4
2019-03-05T09:35:12.816Z,1007.2
2019-03-05T09:36:12.861Z,1007.3
2019-03-05T09:37:12.837Z,1007.4
2019-03-05T09:38:12.863Z,1007.4
2019-03-05T09:39:12.904Z,1007.4
2019-03-05T09:40:12.956Z,1007.4
2019-03-05T09:41:12.954Z,1007.3
2019-03-05T09:42:12.979Z,1007.6
2019-03-05T09:43:13.062Z,1007.7
2019-03-05T09:44:13.084Z,1007.4
2019-03-05T09:45:13.118Z,1007.5
2019-03-05T09:46:13.146Z,1007.3
2019-03-05T09:47:13.142Z,1007.5
2019-03-05T09:48:13.272Z,1007.5
2019-03-05T09:49:13.268Z,1007.4
2019-03-05T09:50:13.372Z,1007.5
2019-03-05T09:51:13.309Z,1007.5
2019-03-05T09:52:13.340Z,1007.6
2019-03-05T09:53:13.350Z,1007.4
2019-03-05T09:54:13.352Z,1007.3
2019-03-05T09:55:13.401Z,1007.4
2019-03-05T09:56:13.433Z,1007.4
2019-03-05T09:57:13.467Z,1007.4
2019-03-05T09:58:13.498Z,1007.5
2019-03-05T09:59:13.486Z,1007.4
2019-03-05T10:00:13.497Z,1007.3
2019-03-05T10:01:13.537Z,1007.4
2019-03-05T10:02:13.549Z,1007.4
2019-03-05T10:03:13.587Z,1007.5
2019-03-05T10:04:13.602Z,1007.4
2019-03-05T10:05:13.651Z,1007.5
2019-03-05T10:06:13.645Z,1007.5
2019-03-05T10:07:18.775Z,1007.4
2019-03-05T10:08:13.649Z,1007.4
2019-03-05T10:09:13.699Z,1007.6
2019-03-05T10:10:13.661Z,1007.7
2019-03-05T10:11:13.669Z,1007.5
2019-03-05T10:12:13.698Z,1007.6
2019-03-05T10:13:13.872Z,1007.5
2019-03-05T10:14:13.744Z,1007.5
2019-03-05T10:15:13.722Z,1007.6
2019-03-05T10:16:13.820Z,1007.5
2019-03-05T10:17:13.779Z,1007.4
2019-03-05T10:18:13.763Z,1007.5
2019-03-05T10:19:13.812Z,1007.6
2019-03-05T10:20:13.795Z,1007.6
2019-03-05T10:21:13.801Z,1007.5
2019-03-05T10:22:13.873Z,1007.4
2019-03-05T10:23:13.826Z,1007.5
2019-03-05T10:24:13.848Z,1007.4
2019-03-05T10:25:13.887Z,1007.5
2019-03-05T10:26:13.837Z,1007.4
2019-03-05T10:27:13.895Z,1007.6
2019-03-05T10:28:13.893Z,1007.4
2019-03-05T10:29:13.929Z,1007.5
2019-03-05T10:30:24.049Z,1007.4
2019-03-05T10:31:13.899Z,1007.5
2019-03-05T10:32:13.893Z,1007.4
2019-03-05T10:33:13.952Z,1007.3
2019-03-05T10:34:13.943Z,1007.3
2019-03-05T10:35:13.931Z,1007.3
2019-03-05T10:36:13.932Z,1007.2
2019-03-05T10:37:18.828Z,1007.2
2019-03-05T10:38:13.951Z,1007.2
2019-03-05T10:39:13.962Z,1007.3
2019-03-05T10:40:13.929Z,1007.3
2019-03-05T10:41:13.953Z,1007.3
2019-03-05T10:42:13.947Z,1007.2
2019-03-05T10:43:13.972Z,1007.2
2019-03-05T10:44:14.082Z,1007.3
2019-03-05T10:45:14.020Z,1007.3
2019-03-05T10:46:14.070Z,1007.2
2019-03-05T10:47:14.125Z,1007.3
2019-03-05T10:48:14.133Z,1007.2
2019-03-05T10:49:14.210Z,1007.3
2019-03-05T10:50:15.408Z,1007.2
2019-03-05T10:51:14.278Z,1007.3
2019-03-05T10:52:14.323Z,1007.2
2019-03-05T10:53:14.329Z,1007.2
2019-03-05T10:54:14.388Z,1007.2
2019-03-05T10:55:25.669Z,1014.1
2019-03-05T10:56:14.437Z,1007.2
2019-03-05T10:57:14.483Z,1007.2
2019-03-05T10:58:14.512Z,1007.2
2019-03-05T10:59:14.566Z,1007.1
2019-03-05T11:00:14.544Z,1007.2
2019-03-05T11:01:14.594Z,1007.2
2019-03-05T11:02:14.648Z,1007.2
2019-03-05T11:03:14.646Z,1007.1
2019-03-05T11:04:14.688Z,1007.1
2019-03-05T11:05:14.799Z,1007.1
2019-03-05T11:06:14.757Z,1007
2019-03-05T11:07:14.804Z,1007
2019-03-05T11:08:14.815Z,1007
2019-03-05T11:09:14.862Z,1007
2019-03-05T11:10:14.883Z,1007
2019-03-05T11:11:14.880Z,1006.9
2019-03-05T11:12:14.929Z,1006.9
2019-03-05T11:13:14.954Z,1006.9
2019-03-05T11:14:14.942Z,1007
2019-03-05T11:15:14.992Z,1006.9
2019-03-05T11:16:14.990Z,1007
2019-03-05T11:17:15.051Z,1006.9
2019-03-05T11:18:15.138Z,1007
2019-03-05T11:19:15.096Z,1007
2019-03-05T11:20:15.129Z,1007
2019-03-05T11:21:15.143Z,1007.2
2019-03-05T11:22:15.125Z,1007.3
2019-03-05T11:23:15.174Z,1007.2
2019-03-05T11:24:15.166Z,1007.2
2019-03-05T11:25:15.237Z,1007.1
2019-03-05T11:26:15.345Z,1007.3
2019-03-05T11:27:15.248Z,1007.1
2019-03-05T11:28:15.281Z,1007
2019-03-05T11:29:15.428Z,1007
2019-03-05T11:30:15.363Z,1007.3
2019-03-05T11:31:15.382Z,1007.1
2019-03-05T11:32:15.420Z,1007
2019-03-05T11:33:15.433Z,1007.2
2019-03-05T11:34:15.467Z,1007.1
2019-03-05T11:35:15.483Z,1007
2019-03-05T11:36:15.548Z,1007
2019-03-05T11:37:15.492Z,1006.9
2019-03-05T11:38:15.526Z,1007
2019-03-05T11:39:15.641Z,1006.9
2019-03-05T11:40:20.876Z,1006.8
2019-03-05T11:41:15.598Z,1007
2019-03-05T11:42:15.694Z,1007
2019-03-05T11:43:15.631Z,1007.1
2019-03-05T11:44:15.611Z,1006.9
2019-03-05T11:45:15.682Z,1006.9
2019-03-05T11:46:15.671Z,1006.9
2019-03-05T11:47:15.690Z,1006.8
2019-03-05T11:48:15.747Z,1007
2019-03-05T11:49:15.689Z,1006.8
2019-03-05T11:50:15.700Z,1007.1
2019-03-05T11:51:15.733Z,1006.9
2019-03-05T11:52:15.762Z,1006.8
2019-03-05T11:53:15.859Z,1007
2019-03-05T11:54:15.758Z,1007
2019-03-05T11:55:15.813Z,1007
2019-03-05T11:56:15.771Z,1007
2019-03-05T11:57:15.816Z,1007.1
2019-03-05T11:58:15.814Z,1007
2019-03-05T11:59:15.823Z,1007.2
2019-03-05T12:00:15.825Z,1007.2
2019-03-05T12:01:15.844Z,1007.3
2019-03-05T12:02:21.622Z,1007.4
2019-03-05T12:03:15.938Z,1007.4
2019-03-05T12:04:15.849Z,1007.4
2019-03-05T12:05:15.950Z,1007.4
2019-03-05T12:06:15.864Z,1007.5
2019-03-05T12:07:15.865Z,1007.7
2019-03-05T12:08:15.873Z,1007.4
2019-03-05T12:09:16.935Z,1007.4
2019-03-05T12:10:15.895Z,1007.6
2019-03-05T12:11:18.412Z,1007.5
2019-03-05T12:12:15.905Z,1007.5
2019-03-05T12:13:16.178Z,1007.6
2019-03-05T12:14:15.920Z,1007.5
2019-03-05T12:15:15.956Z,1007.7
2019-03-05T12:16:15.924Z,1007.6
2019-03-05T12:17:15.969Z,1007.6
2019-03-05T12:18:15.967Z,1007.7
2019-03-05T12:19:15.974Z,1007.6
2019-03-05T12:20:15.959Z,1007.6
2019-03-05T12:21:15.956Z,1007.6
2019-03-05T12:22:15.982Z,1007.7
2019-03-05T12:23:15.991Z,1007.7
2019-03-05T12:24:19.808Z,1007.6
2019-03-05T12:25:16.002Z,1007.7
2019-03-05T12:26:16.014Z,1007.7
2019-03-05T12:27:16.022Z,1007.8
2019-03-05T12:28:16.034Z,1007.8
2019-03-05T12:29:16.029Z,1007.9
2019-03-05T12:30:16.071Z,1008
2019-03-05T12:31:16.071Z,1008.1
2019-03-05T12:32:16.037Z,1008